Time;durP1;ratioP1;P1;durP2;ratioP2;P2;SDS_P1;SDS_P2;PMS_P1;PMS_P2;Temp;Humidity;BMP_temperature;BMP_pressure;BME280_temperature;BME280_humidity;BME280_pressure;Samples;Min_cycle;Max_cycle;Signal;HPM_P1;HPM_P2
2023/09/25 00:02:38;;;;;;;3.23;2.73;;;;;;;13.74;57.13;99474.50;6873137;28;20311;-84
2023/09/25 00:05:59;;;;;;;8.83;3.43;;;;;;;13.81;56.70;99478.03;6874273;28;20300;-83
2023/09/25 00:09:23;;;;;;;3.00;2.73;;;;;;;13.91;56.66;99473.00;6882420;28;20209;-83
2023/09/25 00:12:45;;;;;;;7.33;3.27;;;;;;;13.92;56.50;99474.69;6880442;28;20251;-84
2023/09/25 00:16:12;;;;;;;5.10;3.33;;;;;;;13.49;57.64;99474.28;6878303;28;20674;-84
2023/09/25 00:19:34;;;;;;;3.70;2.97;;;;;;;13.80;57.00;99469.06;6881095;28;20267;-85
2023/09/25 00:22:55;;;;;;;3.03;2.73;;;;;;;13.67;57.08;99466.38;6879982;28;20253;-83
2023/09/25 00:26:17;;;;;;;4.20;2.97;;;;;;;13.49;57.85;99463.44;6895911;28;20228;-84
2023/09/25 00:29:40;;;;;;;3.17;2.70;;;;;;;13.73;57.23;99462.81;6903207;28;20212;-84
2023/09/25 00:33:01;;;;;;;3.70;3.07;;;;;;;13.85;56.63;99457.59;6863309;28;20260;-84
2023/09/25 00:36:23;;;;;;;4.17;2.73;;;;;;;13.64;56.79;99458.63;6872235;28;20295;-84
2023/09/25 00:39:44;;;;;;;4.80;2.63;;;;;;;13.99;56.81;99459.25;6872997;28;20217;-84
2023/09/25 00:43:06;;;;;;;7.50;3.27;;;;;;;14.08;56.48;99458.81;6875819;28;20326;-84
2023/09/25 00:46:29;;;;;;;3.40;2.87;;;;;;;14.18;55.91;99459.22;6876505;28;20601;-84
2023/09/25 00:49:50;;;;;;;3.97;3.20;;;;;;;14.20;56.14;99446.31;6877536;28;20302;-84
2023/09/25 00:53:12;;;;;;;3.87;2.83;;;;;;;14.39;55.18;99452.72;6875287;28;20368;-84
2023/09/25 00:56:34;;;;;;;4.10;3.00;;;;;;;14.03;55.89;99450.47;6887664;28;20699;-84
2023/09/25 00:59:55;;;;;;;3.40;2.60;;;;;;;14.42;54.60;99458.56;6873328;28;20784;-84
2023/09/25 01:03:18;;;;;;;2.83;2.53;;;;;;;14.48;54.09;99419.72;6880876;28;20769;-83
2023/09/25 01:06:40;;;;;;;3.20;2.53;;;;;;;14.66;53.87;99465.13;6878725;28;20237;-84
2023/09/25 01:10:07;;;;;;;3.00;2.73;;;;;;;14.42;54.28;99463.13;6876085;28;20220;-85
2023/09/25 01:13:30;;;;;;;4.40;3.00;;;;;;;14.43;54.57;99464.81;6879570;28;20328;-84
2023/09/25 01:16:52;;;;;;;3.70;3.20;;;;;;;14.40;55.07;99462.53;6880564;28;20209;-84
2023/09/25 01:20:17;;;;;;;3.30;2.97;;;;;;;14.26;55.05;99458.16;6882387;28;20235;-84
2023/09/25 01:23:40;;;;;;;3.67;2.80;;;;;;;14.44;54.45;99461.88;6880623;28;20597;-84
2023/09/25 01:27:01;;;;;;;4.53;3.10;;;;;;;14.45;54.76;99458.13;6881034;28;20244;-85
2023/09/25 01:30:23;;;;;;;5.63;3.10;;;;;;;14.19;55.37;99449.22;6880688;28;20626;-84
2023/09/25 01:33:45;;;;;;;3.37;3.07;;;;;;;14.46;54.50;99448.94;6878185;28;20326;-84
2023/09/25 01:37:06;;;;;;;3.70;3.07;;;;;;;14.03;54.86;99420.66;6874302;28;20296;-83
2023/09/25 01:40:30;;;;;;;4.13;3.17;;;;;;;13.98;55.21;99449.47;6876351;28;20347;-85
2023/09/25 01:43:52;;;;;;;3.30;3.00;;;;;;;13.87;55.55;99437.34;6875463;28;20237;-85
2023/09/25 01:47:14;;;;;;;3.73;3.00;;;;;;;13.95;55.60;99450.72;6882472;28;20711;-84
2023/09/25 01:50:35;;;;;;;3.93;3.03;;;;;;;13.73;56.22;99443.00;6878583;28;20347;-84
2023/09/25 01:53:57;;;;;;;4.10;3.10;;;;;;;13.31;57.46;99441.56;6872814;28;20229;-84
2023/09/25 01:57:19;;;;;;;4.80;3.70;;;;;;;13.99;56.32;99445.69;6881204;28;20354;-83
2023/09/25 02:00:41;;;;;;;4.53;2.90;;;;;;;14.01;55.90;99446.31;6874762;28;20304;-84
2023/09/25 02:04:03;;;;;;;3.87;3.00;;;;;;;13.96;55.83;99437.97;6879994;28;20579;-84
2023/09/25 02:07:24;;;;;;;3.27;2.80;;;;;;;13.64;55.65;99377.34;6872758;28;20375;-83
2023/09/25 02:10:46;;;;;;;3.73;3.10;;;;;;;13.98;55.68;99425.88;6878942;28;20264;-84
2023/09/25 02:14:09;;;;;;;4.27;2.87;;;;;;;13.93;55.94;99435.69;6873995;28;20608;-83
2023/09/25 02:17:30;;;;;;;3.27;2.90;;;;;;;13.71;55.56;99429.69;6872513;28;20246;-83
2023/09/25 02:20:52;;;;;;;5.30;3.00;;;;;;;13.41;56.74;99431.16;6878418;28;20299;-83
2023/09/25 02:24:13;;;;;;;3.23;2.73;;;;;;;13.63;56.71;99431.78;6874096;28;20321;-84
2023/09/25 02:27:34;;;;;;;5.37;2.70;;;;;;;13.65;56.51;99416.13;6872568;28;20253;-84
2023/09/25 02:30:57;;;;;;;2.93;2.70;;;;;;;13.31;56.89;99419.88;6864954;28;20692;-84
2023/09/25 02:34:19;;;;;;;3.47;3.13;;;;;;;13.49;56.52;99411.97;6881701;28;20303;-84
2023/09/25 02:37:41;;;;;;;3.10;2.80;;;;;;;13.16;56.10;99413.81;6876343;28;20204;-85
2023/09/25 02:41:03;;;;;;;3.30;3.00;;;;;;;13.12;57.13;99404.47;6873255;28;20208;-84
2023/09/25 02:44:25;;;;;;;4.33;3.10;;;;;;;12.72;58.19;99412.66;6880130;28;20229;-84
2023/09/25 02:47:48;;;;;;;6.00;2.97;;;;;;;12.49;59.11;99423.84;6883389;28;20289;-84
2023/09/25 02:51:10;;;;;;;5.37;2.83;;;;;;;12.59;59.56;99421.59;6882344;28;20208;-83
2023/09/25 02:54:31;;;;;;;5.37;3.30;;;;;;;12.93;58.39;99423.34;6874976;28;20228;-83
2023/09/25 02:57:53;;;;;;;3.20;2.90;;;;;;;12.77;58.51;99442.66;6876831;28;20667;-83
2023/09/25 03:01:14;;;;;;;3.20;3.00;;;;;;;12.63;59.58;99439.06;6881498;28;20299;-84
2023/09/25 03:04:38;;;;;;;3.87;2.90;;;;;;;12.51;59.53;99434.47;6883719;28;20585;-84
2023/09/25 03:07:59;;;;;;;3.10;2.67;;;;;;;12.75;58.85;99434.72;6875004;28;20236;-83
2023/09/25 03:11:21;;;;;;;3.47;2.97;;;;;;;12.81;58.27;99414.97;6873700;28;22328;-84
2023/09/25 03:14:42;;;;;;;3.83;3.10;;;;;;;12.89;58.09;99427.50;6875876;28;20376;-84
2023/09/25 03:18:04;;;;;;;3.53;3.00;;;;;;;13.23;56.26;99416.53;6874622;28;20213;-84
2023/09/25 03:21:27;;;;;;;3.20;2.90;;;;;;;12.75;56.27;99401.44;6879176;28;20341;-83
2023/09/25 03:24:49;;;;;;;2.73;2.50;;;;;;;12.77;56.97;99415.59;6878992;28;20311;-83
2023/09/25 03:28:11;;;;;;;4.53;2.73;;;;;;;12.71;57.25;99419.97;6871068;28;20298;-83
2023/09/25 03:31:33;;;;;;;3.00;2.70;;;;;;;12.72;57.21;99418.91;6870703;28;20660;-83
2023/09/25 03:34:54;;;;;;;3.53;3.23;;;;;;;12.26;57.90;99420.59;6878236;28;20299;-82
2023/09/25 03:38:17;;;;;;;4.83;3.37;;;;;;;11.94;60.79;99415.03;6872056;28;20217;-83
2023/09/25 03:41:38;;;;;;;7.10;3.27;;;;;;;12.10;59.80;99425.53;6870393;28;20219;-83
2023/09/25 03:45:00;;;;;;;5.37;4.37;;;;;;;12.29;59.30;99411.25;6869645;28;20319;-83
2023/09/25 03:48:21;;;;;;;5.33;4.83;;;;;;;12.51;58.42;99418.22;6864441;28;20259;-83
2023/09/25 03:51:43;;;;;;;3.40;3.10;;;;;;;12.44;58.58;99411.94;6868047;28;20240;-82
2023/09/25 03:55:06;;;;;;;6.83;3.63;;;;;;;11.99;59.07;99413.38;6865165;28;20739;-82
2023/09/25 03:58:28;;;;;;;3.90;3.00;;;;;;;11.90;59.67;99428.09;6873725;28;20246;-83
2023/09/25 04:01:49;;;;;;;3.53;3.23;;;;;;;11.79;59.71;99434.06;6881201;28;20212;-82
2023/09/25 04:05:12;;;;;;;3.93;2.90;;;;;;;12.04;60.48;99429.03;6888591;28;20231;-83
2023/09/25 04:08:33;;;;;;;3.67;3.17;;;;;;;12.36;59.06;99445.41;6870781;28;20244;-83
2023/09/25 04:11:57;;;;;;;4.40;3.20;;;;;;;12.52;58.81;99433.41;6877405;28;20276;-82
2023/09/25 04:15:18;;;;;;;4.73;3.20;;;;;;;12.42;58.29;99425.69;6873560;28;20209;-82
2023/09/25 04:18:40;;;;;;;4.07;3.60;;;;;;;12.48;57.98;99438.41;6879198;28;20672;-82
2023/09/25 04:22:06;;;;;;;4.70;3.37;;;;;;;12.05;57.29;99449.59;6860748;28;20216;-82
2023/09/25 04:25:28;;;;;;;3.60;3.30;;;;;;;12.26;57.14;99442.25;6866978;28;20598;-82
2023/09/25 04:29:01;;;;;;;3.20;2.90;;;;;;;12.23;58.41;99441.81;6879476;28;20540;-82
2023/09/25 04:40:32;;;;;;;4.47;3.10;;;;;;;12.69;56.66;99440.13;6872580;28;20559;-83
2023/09/25 04:43:55;;;;;;;6.20;3.07;;;;;;;12.10;56.84;99422.81;6874806;28;20315;-83
2023/09/25 04:47:17;;;;;;;4.37;3.63;;;;;;;12.09;57.39;99431.97;6875910;28;20318;-82
2023/09/25 04:50:38;;;;;;;3.67;3.17;;;;;;;12.11;58.37;99443.41;6876259;28;20791;-82
2023/09/25 04:54:01;;;;;;;3.97;3.37;;;;;;;11.99;57.80;99412.56;6875517;28;20322;-82
2023/09/25 04:57:22;;;;;;;3.37;3.07;;;;;;;11.42;57.47;99315.56;6884924;28;20209;-82
2023/09/25 05:00:45;;;;;;;3.57;2.90;;;;;;;11.78;57.13;99362.16;6891956;28;20212;-82
2023/09/25 05:04:07;;;;;;;4.03;3.10;;;;;;;11.76;57.62;99404.72;6884125;28;20283;-85
2023/09/25 05:07:29;;;;;;;4.73;3.17;;;;;;;12.02;57.52;99439.19;6881624;28;20247;-85
2023/09/25 05:10:50;;;;;;;7.67;3.13;;;;;;;11.75;57.81;99434.66;6870885;28;20263;-85
2023/09/25 05:14:12;;;;;;;3.47;3.13;;;;;;;11.31;58.57;99386.31;6885916;28;20233;-82
2023/09/25 05:17:36;;;;;;;5.63;3.67;;;;;;;11.52;60.24;99440.25;6884453;28;20615;-85
2023/09/25 05:20:58;;;;;;;4.00;3.60;;;;;;;11.58;59.87;99401.69;6889772;28;20228;-83
2023/09/25 05:24:19;;;;;;;5.23;3.50;;;;;;;11.65;59.33;99426.06;6888524;28;20252;-83
2023/09/25 05:27:42;;;;;;;3.77;3.40;;;;;;;11.82;59.15;99435.53;6892677;28;20345;-83
2023/09/25 05:31:04;;;;;;;5.63;3.97;;;;;;;11.77;58.47;99422.63;6880459;28;20252;-86
2023/09/25 05:34:27;;;;;;;5.50;3.43;;;;;;;11.93;58.58;99437.69;6880759;28;20288;-84
2023/09/25 05:37:49;;;;;;;4.13;3.37;;;;;;;12.10;58.52;99434.44;6888209;28;20221;-83
2023/09/25 05:41:10;;;;;;;4.77;3.60;;;;;;;12.03;58.38;99443.56;6888975;28;20216;-84
2023/09/25 05:44:32;;;;;;;7.67;5.77;;;;;;;11.81;58.08;99404.97;6883733;28;20316;-83
2023/09/25 05:47:53;;;;;;;6.90;5.60;;;;;;;12.15;58.40;99433.88;6885298;28;20224;-84
2023/09/25 05:56:07;;;;;;;7.60;4.53;;;;;;;11.86;58.49;99426.00;6883614;28;20208;-83
2023/09/25 06:16:39;;;;;;;3.50;3.20;;;;;;;12.21;59.02;99428.47;6842739;29;20225;-82
2023/09/25 06:20:00;;;;;;;4.43;3.30;;;;;;;13.07;58.25;99438.59;6836207;28;20213;-84
2023/09/25 06:23:22;;;;;;;5.73;3.70;;;;;;;13.66;56.19;99434.03;6856887;29;20328;-82
2023/09/25 06:26:46;;;;;;;4.67;3.23;;;;;;;13.92;55.65;99444.88;6861369;29;20290;-85
2023/09/25 06:30:09;;;;;;;7.03;3.77;;;;;;;14.33;55.25;99432.69;6861609;29;20243;-82
2023/09/25 06:33:32;;;;;;;3.33;3.03;;;;;;;14.32;54.22;99436.47;6851795;29;20229;-83
2023/09/25 06:36:54;;;;;;;6.43;3.47;;;;;;;14.88;53.39;99440.19;6850662;29;20209;-82
2023/09/25 06:40:15;;;;;;;4.33;3.83;;;;;;;14.59;54.83;99443.47;6839710;29;20210;-82
2023/09/25 06:43:37;;;;;;;4.57;3.67;;;;;;;14.86;54.60;99449.63;6850750;29;20254;-84
2023/09/25 06:46:58;;;;;;;3.73;3.30;;;;;;;15.02;53.98;99441.78;6839257;29;20310;-82
2023/09/25 06:50:21;;;;;;;4.03;3.57;;;;;;;16.37;52.69;99445.44;6848181;29;20227;-84
2023/09/25 06:53:43;;;;;;;3.90;3.50;;;;;;;15.81;51.08;99458.38;6871223;28;20779;-84
2023/09/25 06:57:04;;;;;;;5.03;4.00;;;;;;;15.25;53.66;99444.78;6900088;28;20229;-84
2023/09/25 07:00:26;;;;;;;4.20;3.80;;;;;;;15.74;53.18;99463.03;6893029;28;20213;-83
2023/09/25 07:03:47;;;;;;;5.37;3.90;;;;;;;16.22;51.53;99455.88;6888645;28;20232;-83
2023/09/25 07:07:10;;;;;;;5.47;3.80;;;;;;;16.54;51.57;99443.81;6887732;28;20219;-83
2023/09/25 07:10:32;;;;;;;5.07;3.73;;;;;;;16.46;50.49;99412.28;6880798;28;20231;-84
2023/09/25 07:13:54;;;;;;;4.37;3.93;;;;;;;16.14;50.60;99453.44;6870693;28;20246;-83
2023/09/25 07:17:16;;;;;;;4.83;3.90;;;;;;;16.24;50.82;99442.88;6892244;28;20764;-83
2023/09/25 07:20:38;;;;;;;5.27;3.53;;;;;;;16.46;51.17;99412.28;6867768;28;20690;-84
2023/09/25 07:24:00;;;;;;;5.80;3.73;;;;;;;17.57;48.40;99432.53;6882996;28;20895;-84
2023/09/25 07:27:22;;;;;;;3.60;3.30;;;;;;;17.51;48.13;99433.47;6869885;28;20742;-84
2023/09/25 07:30:44;;;;;;;5.83;3.70;;;;;;;17.50;48.63;99429.06;6877080;28;20225;-84
2023/09/25 07:34:06;;;;;;;7.50;3.87;;;;;;;17.58;48.43;99429.56;6868994;28;20229;-84
2023/09/25 07:37:27;;;;;;;4.00;3.60;;;;;;;18.30;46.74;99417.34;6870866;28;20209;-85
2023/09/25 07:40:50;;;;;;;4.63;3.70;;;;;;;18.17;46.17;99358.38;6862697;28;20262;-83
2023/09/25 07:44:12;;;;;;;4.87;3.43;;;;;;;18.34;46.60;99437.69;6863047;28;20803;-84
2023/09/25 07:47:38;;;;;;;5.63;3.60;;;;;;;19.15;45.49;99447.31;6862345;28;20202;-84
2023/09/25 07:50:59;;;;;;;6.27;3.87;;;;;;;18.46;46.26;99428.41;6878588;28;20236;-83
2023/09/25 07:54:21;;;;;;;5.60;3.70;;;;;;;19.82;44.74;99415.44;6871032;28;20225;-82
2023/09/25 07:57:44;;;;;;;9.77;3.87;;;;;;;20.41;43.19;99426.47;6878753;28;20249;-84
2023/09/25 08:01:08;;;;;;;4.20;3.60;;;;;;;20.37;43.68;99419.84;6880178;28;20239;-84
2023/09/25 08:04:30;;;;;;;7.00;4.00;;;;;;;20.83;43.00;99424.84;6865409;28;20231;-84
2023/09/25 08:07:52;;;;;;;5.57;3.07;;;;;;;21.83;40.97;99415.75;6871558;28;20700;-84
2023/09/25 08:11:15;;;;;;;4.00;3.60;;;;;;;22.16;40.69;99418.22;6869115;28;20206;-84
2023/09/25 08:14:37;;;;;;;3.77;2.90;;;;;;;21.65;41.01;99347.50;6866664;28;20287;-84
2023/09/25 08:17:59;;;;;;;3.87;2.90;;;;;;;22.19;40.31;99416.84;6872159;28;20352;-84
2023/09/25 08:21:20;;;;;;;3.63;3.10;;;;;;;22.14;40.33;99427.81;6880737;28;20355;-84
2023/09/25 08:24:42;;;;;;;3.70;3.27;;;;;;;22.24;39.50;99425.94;6863371;28;20328;-84
2023/09/25 08:28:04;;;;;;;4.50;3.37;;;;;;;22.12;40.64;99410.75;6870729;28;20699;-84
2023/09/25 08:31:27;;;;;;;7.20;3.43;;;;;;;23.08;39.89;99430.22;6881424;28;20255;-84
2023/09/25 08:34:48;;;;;;;3.77;3.30;;;;;;;23.12;39.19;99423.06;6862080;28;20318;-84
2023/09/25 08:38:10;;;;;;;5.07;2.90;;;;;;;23.98;38.59;99424.06;6871488;28;20217;-84
2023/09/25 08:41:32;;;;;;;4.17;3.03;;;;;;;24.37;37.33;99427.88;6873291;28;20705;-84
2023/09/25 08:44:54;;;;;;;2.67;2.13;;;;;;;24.36;37.31;99429.78;6866804;28;20242;-84
2023/09/25 08:48:18;;;;;;;2.80;2.47;;;;;;;24.96;36.80;99424.09;6875056;28;20376;-84
2023/09/25 08:51:40;;;;;;;2.50;2.30;;;;;;;24.34;36.31;99418.22;6874828;28;20735;-85
2023/09/25 08:55:02;;;;;;;5.30;2.33;;;;;;;24.67;35.93;99425.88;6881828;28;20747;-84
2023/09/25 08:58:25;;;;;;;5.17;2.30;;;;;;;24.01;36.63;99423.53;6870901;28;20207;-84
2023/09/25 09:01:47;;;;;;;2.67;2.20;;;;;;;24.06;36.46;99424.31;6861733;28;20214;-85
2023/09/25 09:05:12;;;;;;;3.53;2.23;;;;;;;23.29;37.63;99411.84;6878159;28;20243;-84
2023/09/25 09:08:33;;;;;;;3.30;2.50;;;;;;;23.12;38.09;99408.50;6872105;28;20234;-84
2023/09/25 09:11:57;;;;;;;4.80;2.53;;;;;;;22.42;38.91;99395.25;6872496;28;20249;-84
2023/09/25 09:15:25;;;;;;;3.03;2.27;;;;;;;22.24;39.97;99422.38;6878623;28;20631;-84
2023/09/25 09:18:47;;;;;;;2.40;2.20;;;;;;;22.75;38.31;99394.06;6884018;28;20683;-83
2023/09/25 09:22:09;;;;;;;4.00;2.23;;;;;;;24.01;36.17;99410.56;6884797;28;20252;-83
2023/09/25 09:25:31;;;;;;;2.60;2.40;;;;;;;23.04;36.86;99332.84;6881967;28;20219;-84
2023/09/25 09:28:54;;;;;;;4.20;2.20;;;;;;;23.36;37.57;99416.00;6881767;28;20695;-85
2023/09/25 09:32:15;;;;;;;3.87;2.27;;;;;;;23.58;36.92;99388.22;6872789;28;20240;-85
2023/09/25 09:35:37;;;;;;;5.37;2.20;;;;;;;24.10;35.50;99419.09;6867238;28;20301;-84
2023/09/25 09:39:01;;;;;;;3.90;2.60;;;;;;;24.08;35.80;99410.28;6880892;28;20365;-85
2023/09/25 09:42:24;;;;;;;2.23;2.10;;;;;;;22.85;37.17;99407.88;6864827;28;20367;-84
2023/09/25 09:45:49;;;;;;;3.00;2.30;;;;;;;23.24;36.22;99363.16;6874165;28;20206;-85
2023/09/25 09:49:14;;;;;;;2.73;2.37;;;;;;;23.82;35.80;99378.31;6870590;28;20234;-84
2023/09/25 09:52:38;;;;;;;4.27;2.40;;;;;;;24.27;35.39;99387.38;6869003;28;20254;-85
2023/09/25 09:56:02;;;;;;;2.83;2.00;;;;;;;24.69;34.70;99395.25;6875422;28;20208;-85
2023/09/25 09:59:23;;;;;;;2.87;2.40;;;;;;;24.11;34.26;99327.88;6880917;28;20214;-85
2023/09/25 10:02:45;;;;;;;3.63;2.20;;;;;;;25.13;33.94;99338.19;6880808;28;20650;-85
2023/09/25 10:06:07;;;;;;;2.97;2.20;;;;;;;23.72;35.92;99392.09;6881484;28;20224;-85
2023/09/25 10:09:29;;;;;;;2.43;2.20;;;;;;;24.22;34.53;99365.34;6876544;28;20297;-85
2023/09/25 10:12:52;;;;;;;2.43;2.20;;;;;;;25.82;32.93;99378.25;6878134;28;20375;-86
2023/09/25 10:16:15;;;;;;;2.73;2.10;;;;;;;26.98;31.18;99377.84;6878680;28;20240;-85
2023/09/25 10:19:48;;;;;;;2.87;1.80;;;;;;;24.86;31.76;99382.78;6876155;28;20667;-87
2023/09/25 10:23:11;;;;;;;2.07;1.87;;;;;;;25.11;31.95;99377.09;6883470;28;20235;-84
2023/09/25 10:26:33;;;;;;;2.80;2.30;;;;;;;26.34;30.78;99371.97;6886470;28;20258;-85
2023/09/25 10:30:14;;;;;;;3.90;2.30;;;;;;;25.54;31.13;99364.44;6885057;28;20278;-84
2023/09/25 10:33:38;;;;;;;1.90;1.80;;;;;;;25.38;32.50;99368.41;6869705;28;20272;-84
2023/09/25 10:37:00;;;;;;;2.30;2.00;;;;;;;26.24;30.75;99366.56;6879018;28;20212;-85
2023/09/25 10:40:22;;;;;;;2.67;1.70;;;;;;;25.34;31.76;99361.81;6881887;28;20251;-85
2023/09/25 10:43:43;;;;;;;3.20;2.17;;;;;;;24.44;32.89;99371.34;6877940;28;20729;-85
2023/09/25 10:47:09;;;;;;;2.57;2.20;;;;;;;24.26;33.03;99286.47;6875657;28;20247;-84
2023/09/25 10:50:31;;;;;;;2.43;1.80;;;;;;;25.99;31.05;99309.59;6860111;28;20679;-87
2023/09/25 10:53:53;;;;;;;3.80;1.90;;;;;;;25.45;31.19;99368.91;6875640;28;20311;-85
2023/09/25 10:57:14;;;;;;;2.73;2.10;;;;;;;25.03;31.70;99352.88;6885316;28;20288;-88
2023/09/25 11:00:38;;;;;;;2.47;2.27;;;;;;;25.45;31.38;99355.94;6879920;28;20208;-86
2023/09/25 11:04:03;;;;;;;3.70;1.90;;;;;;;25.93;30.13;99356.91;6870847;28;20244;-84
2023/09/25 11:07:26;;;;;;;2.50;2.10;;;;;;;24.67;30.67;99267.84;6875616;28;20216;-89
2023/09/25 11:10:47;;;;;;;3.67;2.30;;;;;;;23.84;32.74;99365.09;6871159;28;20239;-89
2023/09/25 11:14:09;;;;;;;3.10;2.07;;;;;;;26.49;29.16;99344.94;6880022;28;20233;-90
2023/09/25 11:17:31;;;;;;;2.83;1.80;;;;;;;26.55;29.32;99352.09;6868189;28;20303;-89
2023/09/25 11:20:57;;;;;;;2.27;2.07;;;;;;;26.15;29.30;99335.97;6865994;28;20252;-86
2023/09/25 11:24:19;;;;;;;2.47;1.90;;;;;;;26.28;29.55;99339.94;6866163;28;20248;-84
2023/09/25 11:27:51;;;;;;;3.03;2.17;;;;;;;26.47;30.00;99351.88;6882404;28;20741;-85
2023/09/25 11:31:15;;;;;;;2.03;1.80;;;;;;;25.83;29.76;99341.22;6874663;28;20239;-85
2023/09/25 11:34:39;;;;;;;1.97;1.77;;;;;;;27.60;28.44;99341.47;6864708;28;20260;-80
2023/09/25 11:38:03;;;;;;;2.03;1.80;;;;;;;26.87;29.10;99338.41;6874487;28;20216;-85
2023/09/25 11:41:25;;;;;;;3.83;2.00;;;;;;;26.76;28.19;99345.19;6876148;28;20275;-85
2023/09/25 11:44:46;;;;;;;3.90;1.90;;;;;;;26.14;29.89;99352.84;6884414;28;20337;-84
2023/09/25 11:48:09;;;;;;;2.30;2.10;;;;;;;25.61;30.08;99351.91;6874778;28;20209;-85
2023/09/25 11:51:33;;;;;;;2.23;2.03;;;;;;;25.26;30.38;99351.38;6880646;28;20229;-85
2023/09/25 11:54:56;;;;;;;2.23;1.80;;;;;;;26.05;29.88;99307.59;6878005;28;20229;-86
2023/09/25 11:58:17;;;;;;;2.20;2.00;;;;;;;26.62;28.95;99348.97;6874457;28;20228;-84
2023/09/25 12:01:39;;;;;;;2.03;1.80;;;;;;;25.93;29.45;99343.94;6876691;28;20269;-85
2023/09/25 12:05:01;;;;;;;1.90;1.80;;;;;;;24.65;31.79;99350.88;6878177;28;20232;-86
2023/09/25 12:08:22;;;;;;;2.67;1.90;;;;;;;25.45;30.78;99341.28;6872052;28;20363;-85
2023/09/25 12:11:46;;;;;;;3.60;2.20;;;;;;;27.20;27.67;99337.38;6877629;28;20270;-85
2023/09/25 12:15:09;;;;;;;2.20;2.00;;;;;;;27.07;27.62;99337.31;6871756;28;20244;-84
2023/09/25 12:18:33;;;;;;;2.00;1.80;;;;;;;27.22;27.65;99328.78;6876291;28;20224;-85
2023/09/25 12:21:54;;;;;;;2.33;1.87;;;;;;;28.06;27.03;99326.53;6874216;28;20356;-85
2023/09/25 12:25:16;;;;;;;7.17;2.10;;;;;;;26.34;28.08;99280.69;6869991;28;20233;-86
2023/09/25 12:28:39;;;;;;;2.23;1.90;;;;;;;26.01;30.00;99339.72;6869040;28;20576;-86
2023/09/25 12:32:01;;;;;;;2.77;1.87;;;;;;;26.14;29.00;99341.78;6872828;28;20700;-85
2023/09/25 12:35:22;;;;;;;2.33;1.90;;;;;;;27.01;29.04;99319.94;6871278;28;20251;-85
2023/09/25 12:38:44;;;;;;;2.07;1.87;;;;;;;26.85;28.20;99332.31;6875000;28;20297;-85
2023/09/25 12:42:05;;;;;;;1.80;1.70;;;;;;;26.23;28.70;99345.53;6875988;28;20685;-85
2023/09/25 12:45:28;;;;;;;2.57;1.67;;;;;;;27.57;27.62;99306.88;6874797;28;20604;-85
2023/09/25 12:48:50;;;;;;;3.27;1.73;;;;;;;27.24;27.50;99329.31;6874021;28;20215;-85
2023/09/25 12:52:11;;;;;;;2.17;1.90;;;;;;;27.67;27.64;99312.22;6876048;28;20296;-85
2023/09/25 12:55:33;;;;;;;2.93;2.00;;;;;;;26.18;28.78;99331.78;6877005;28;20261;-85
2023/09/25 12:58:55;;;;;;;3.60;2.03;;;;;;;26.66;28.58;99309.34;6882156;28;20303;-86
2023/09/25 13:02:17;;;;;;;2.13;1.63;;;;;;;26.70;28.25;99321.47;6879918;28;20222;-84
2023/09/25 13:05:39;;;;;;;2.00;1.80;;;;;;;26.18;29.12;99324.31;6883807;28;20738;-82
2023/09/25 13:09:00;;;;;;;1.90;1.80;;;;;;;27.27;28.38;99304.63;6871319;28;20213;-85
2023/09/25 13:12:22;;;;;;;1.80;1.70;;;;;;;26.86;27.38;99250.97;6863992;28;20242;-87
2023/09/25 13:15:44;;;;;;;3.10;2.10;;;;;;;26.30;28.81;99299.84;6864488;28;20235;-87
2023/09/25 13:19:07;;;;;;;2.90;2.03;;;;;;;26.08;29.85;99307.81;6865276;28;21033;-84
2023/09/25 13:22:28;;;;;;;4.13;1.93;;;;;;;26.74;28.74;99302.34;6865896;28;20268;-86
2023/09/25 13:25:50;;;;;;;2.03;1.70;;;;;;;27.02;28.59;99291.13;6868341;28;20699;-85
2023/09/25 13:29:11;;;;;;;1.80;1.70;;;;;;;27.79;27.38;99306.25;6868161;28;20296;-84
2023/09/25 13:32:33;;;;;;;2.70;1.77;;;;;;;27.29;28.21;99307.91;6867226;28;20316;-86
2023/09/25 13:35:56;;;;;;;1.57;1.47;;;;;;;27.02;29.13;99243.25;6867832;28;20271;-83
2023/09/25 13:39:18;;;;;;;1.80;1.63;;;;;;;27.91;28.23;99312.13;6867970;28;20265;-85
2023/09/25 13:42:40;;;;;;;3.60;1.87;;;;;;;28.49;27.51;99316.00;6863798;28;20256;-81
2023/09/25 13:46:01;;;;;;;3.00;1.93;;;;;;;27.24;28.49;99290.56;6868463;28;20205;-84
2023/09/25 13:49:23;;;;;;;1.93;1.70;;;;;;;26.66;29.75;99289.97;6867775;28;20337;-83
2023/09/25 13:52:47;;;;;;;1.90;1.80;;;;;;;26.77;30.06;99310.88;6866156;28;20221;-84
2023/09/25 13:56:09;;;;;;;2.20;1.73;;;;;;;26.73;29.36;99301.50;6870397;28;20209;-85
2023/09/25 13:59:30;;;;;;;2.67;1.73;;;;;;;26.39;29.38;99256.59;6872635;28;20233;-85
2023/09/25 14:02:52;;;;;;;3.23;1.50;;;;;;;26.97;28.64;99309.75;6877127;28;20363;-84
2023/09/25 14:06:13;;;;;;;3.23;1.67;;;;;;;27.03;29.27;99303.03;6874212;28;20300;-84
2023/09/25 14:09:36;;;;;;;1.93;1.80;;;;;;;27.77;28.48;99297.41;6874298;28;20294;-84
2023/09/25 14:12:58;;;;;;;2.00;1.73;;;;;;;27.57;28.86;99306.88;6877145;28;20320;-83
2023/09/25 14:16:19;;;;;;;1.93;1.73;;;;;;;26.96;29.64;99291.50;6882351;28;20665;-84
2023/09/25 14:19:41;;;;;;;1.80;1.70;;;;;;;27.40;28.26;99214.38;6873566;28;20260;-84
2023/09/25 14:23:02;;;;;;;2.00;1.43;;;;;;;26.04;30.60;99275.53;6870771;28;20286;-84
2023/09/25 14:26:25;;;;;;;1.83;1.73;;;;;;;27.08;30.04;99284.38;6872080;28;20232;-84
2023/09/25 14:29:47;;;;;;;2.83;1.60;;;;;;;28.05;28.62;99279.69;6876092;28;20232;-84
2023/09/25 14:33:08;;;;;;;1.60;1.50;;;;;;;27.51;29.22;99276.78;6873329;28;20285;-85
2023/09/25 14:36:30;;;;;;;2.53;1.77;;;;;;;27.37;29.36;99298.09;6862161;28;20300;-84
2023/09/25 14:39:51;;;;;;;1.90;1.80;;;;;;;27.60;28.47;99250.84;6876722;28;20208;-84
2023/09/25 14:43:14;;;;;;;3.53;2.00;;;;;;;27.55;29.13;99284.19;6872267;28;20831;-85
2023/09/25 14:46:36;;;;;;;1.70;1.60;;;;;;;27.56;28.93;99285.00;6877612;28;20224;-84
2023/09/25 14:49:57;;;;;;;2.00;1.90;;;;;;;27.25;29.81;99290.22;6870384;28;20271;-83
2023/09/25 14:53:19;;;;;;;2.33;2.00;;;;;;;26.46;30.90;99279.16;6871041;28;20264;-84
2023/09/25 14:56:40;;;;;;;2.07;1.90;;;;;;;26.80;30.89;99281.78;6870695;28;20649;-84
2023/09/25 15:00:04;;;;;;;2.17;1.50;;;;;;;26.46;30.75;99287.47;6877557;28;20291;-83
2023/09/25 15:03:26;;;;;;;1.70;1.60;;;;;;;25.96;32.38;99298.31;6872042;28;20246;-84
2023/09/25 15:06:49;;;;;;;1.90;1.63;;;;;;;27.00;31.26;99282.31;6875664;28;20699;-84
2023/09/25 15:10:11;;;;;;;1.70;1.60;;;;;;;26.90;30.54;99285.22;6877847;28;20331;-84
2023/09/25 15:13:32;;;;;;;2.37;1.90;;;;;;;26.50;31.64;99282.16;6872038;28;20995;-84
2023/09/25 15:16:55;;;;;;;4.73;2.03;;;;;;;27.26;30.88;99275.25;6880521;28;20303;-84
2023/09/25 15:20:17;;;;;;;2.10;1.73;;;;;;;27.85;30.01;99263.47;6872463;28;20236;-84
2023/09/25 15:23:39;;;;;;;2.13;1.93;;;;;;;27.86;29.47;99276.19;6874370;28;20312;-85
2023/09/25 15:27:01;;;;;;;4.50;2.00;;;;;;;26.84;30.94;99235.78;6876356;28;20251;-85
2023/09/25 15:30:22;;;;;;;2.13;1.80;;;;;;;27.52;30.00;99273.72;6871687;28;20349;-85
2023/09/25 15:33:45;;;;;;;3.20;1.77;;;;;;;27.53;31.25;99269.81;6866456;28;20229;-85
2023/09/25 15:37:07;;;;;;;2.13;1.93;;;;;;;27.32;31.16;99273.25;6868935;28;20703;-85
2023/09/25 15:40:28;;;;;;;3.67;1.80;;;;;;;26.90;31.86;99267.81;6868627;28;20300;-84
2023/09/25 15:43:50;;;;;;;2.67;1.90;;;;;;;26.46;32.57;99273.63;6872736;28;20326;-85
2023/09/25 15:47:11;;;;;;;1.90;1.70;;;;;;;26.84;32.07;99272.56;6871561;28;20275;-86
2023/09/25 15:50:34;;;;;;;3.57;1.90;;;;;;;26.37;32.64;99275.41;6868050;28;20304;-87
2023/09/25 15:53:58;;;;;;;1.93;1.80;;;;;;;26.57;32.25;99228.16;6873987;28;20236;-86
2023/09/25 15:57:20;;;;;;;1.70;1.60;;;;;;;25.89;33.49;99214.91;6868626;28;20209;-85
2023/09/25 16:00:42;;;;;;;2.83;1.87;;;;;;;26.03;33.76;99271.13;6867303;28;20223;-85
2023/09/25 16:04:04;;;;;;;1.73;1.63;;;;;;;26.74;33.20;99264.44;6871744;28;20300;-84
2023/09/25 16:07:27;;;;;;;2.10;2.00;;;;;;;26.89;33.29;99272.50;6878297;28;20646;-84
2023/09/25 16:10:49;;;;;;;3.10;2.00;;;;;;;26.34;33.74;99255.81;6875608;28;20306;-85
2023/09/25 16:14:10;;;;;;;2.33;2.00;;;;;;;27.00;32.95;99251.00;6864521;28;20221;-85
2023/09/25 16:17:32;;;;;;;2.20;2.00;;;;;;;26.88;32.52;99253.41;6867959;28;20216;-85
2023/09/25 16:20:54;;;;;;;2.23;2.00;;;;;;;26.88;33.13;99272.78;6873885;28;20216;-85
2023/09/25 16:24:17;;;;;;;1.80;1.70;;;;;;;26.96;33.22;99274.91;6870260;28;20229;-85